Time;durP1;ratioP1;P1;durP2;ratioP2;P2;SDS_P1;SDS_P2;PMS_P1;PMS_P2;Temp;Humidity;BMP_temperature;BMP_pressure;BME280_temperature;BME280_humidity;BME280_pressure;Samples;Min_cycle;Max_cycle;Signal;HPM_P1;HPM_P2
2022/08/18 00:02:02;;;;;;;15.63;8.73;;;18.40;99.90;;;;;;4918478;29;20059;-84
2022/08/18 00:04:28;;;;;;;15.27;9.77;;;18.40;99.90;;;;;;4923432;29;20039;-85
2022/08/18 00:06:54;;;;;;;17.52;9.82;;;18.40;99.90;;;;;;4925163;29;20383;-84
2022/08/18 00:09:20;;;;;;;14.50;10.02;;;18.40;99.90;;;;;;4939569;29;20047;-86
2022/08/18 00:11:45;;;;;;;13.93;9.38;;;18.30;99.90;;;;;;4908463;29;20511;-84
2022/08/18 00:14:17;;;;;;;19.50;11.13;;;18.30;99.90;;;;;;4922190;29;20044;-84
2022/08/18 00:16:42;;;;;;;22.15;13.85;;;18.30;99.90;;;;;;4927628;29;20408;-85
2022/08/18 00:19:08;;;;;;;11.35;9.15;;;18.20;99.90;;;;;;4938471;29;20040;-85
2022/08/18 00:21:34;;;;;;;12.27;9.10;;;18.20;99.90;;;;;;4939742;29;20051;-84
2022/08/18 00:23:59;;;;;;;21.33;10.55;;;18.20;99.90;;;;;;4926836;29;20103;-84
2022/08/18 00:26:25;;;;;;;10.10;8.57;;;18.20;99.90;;;;;;4921104;29;20439;-84
2022/08/18 00:28:51;;;;;;;11.90;8.43;;;18.10;99.90;;;;;;4915303;29;20047;-85
2022/08/18 00:31:16;;;;;;;12.05;8.77;;;18.10;99.90;;;;;;4922651;29;20043;-83
2022/08/18 00:33:42;;;;;;;17.58;13.32;;;18.10;99.90;;;;;;4936684;29;20098;-84
2022/08/18 00:36:10;;;;;;;9.65;8.35;;;18.10;99.90;;;;;;4935827;29;20047;-84
2022/08/18 00:38:36;;;;;;;23.13;13.90;;;18.00;99.90;;;;;;4935405;29;20413;-84
2022/08/18 00:41:02;;;;;;;20.10;10.60;;;18.00;99.90;;;;;;4935983;29;20051;-84
2022/08/18 00:43:39;;;;;;;11.25;8.75;;;17.90;99.90;;;;;;4920328;29;20083;-84
2022/08/18 00:46:14;;;;;;;20.38;12.25;;;17.90;99.90;;;;;;4920398;29;20101;-84
2022/08/18 00:48:39;;;;;;;20.38;12.77;;;17.80;99.90;;;;;;4927538;29;20094;-84
2022/08/18 00:51:17;;;;;;;19.08;12.15;;;17.90;99.90;;;;;;4935647;29;20043;-83
2022/08/18 00:53:51;;;;;;;15.75;9.98;;;17.80;99.90;;;;;;4936422;29;20058;-83
2022/08/18 00:56:24;;;;;;;24.05;15.40;;;17.70;99.90;;;;;;4935639;29;20058;-83
2022/08/18 00:59:08;;;;;;;23.52;13.27;;;17.80;99.90;;;;;;4934491;29;20051;-84
2022/08/18 01:01:35;;;;;;;21.13;14.27;;;17.70;99.90;;;;;;4934494;29;20059;-83
2022/08/18 01:04:40;;;;;;;19.42;11.32;;;17.70;99.90;;;;;;4936384;29;20093;-83
2022/08/18 01:07:28;;;;;;;14.55;9.82;;;17.70;99.90;;;;;;4933093;29;20055;-84
2022/08/18 01:09:58;;;;;;;28.75;15.18;;;17.70;99.90;;;;;;4935088;29;20128;-84
2022/08/18 01:12:25;;;;;;;19.35;12.82;;;17.70;99.90;;;;;;4935932;29;20051;-83
2022/08/18 01:14:51;;;;;;;20.30;12.00;;;17.80;99.90;;;;;;4934820;28;20047;-83
2022/08/18 01:22:48;;;;;;;30.35;14.85;;;17.90;99.90;;;;;;4922107;29;20138;-84
2022/08/18 01:28:07;;;;;;;23.00;14.52;;;17.90;99.90;;;;;;4934330;29;20122;-84
2022/08/18 01:30:46;;;;;;;21.42;12.85;;;17.90;99.90;;;;;;4928377;29;20047;-84
2022/08/18 01:33:12;;;;;;;19.55;10.77;;;17.90;99.90;;;;;;4916864;29;20509;-84
2022/08/18 01:35:41;;;;;;;20.75;12.00;;;17.90;99.90;;;;;;4916479;29;20118;-85
2022/08/18 01:38:07;;;;;;;16.00;10.32;;;17.80;99.90;;;;;;4930071;29;20059;-84
2022/08/18 01:40:32;;;;;;;21.70;11.23;;;17.80;99.90;;;;;;4935430;29;20050;-83
2022/08/18 01:42:59;;;;;;;18.38;10.40;;;17.80;99.90;;;;;;4935646;29;20039;-84
2022/08/18 01:45:25;;;;;;;21.48;10.50;;;17.70;99.90;;;;;;4934881;29;20086;-84
2022/08/18 01:47:50;;;;;;;18.95;10.63;;;17.70;99.90;;;;;;4935048;29;20043;-84
2022/08/18 01:50:17;;;;;;;25.85;10.82;;;17.70;99.90;;;;;;4935744;29;20054;-84
2022/08/18 01:52:42;;;;;;;18.55;11.30;;;17.70;99.90;;;;;;4935797;29;20051;-83
2022/08/18 01:55:09;;;;;;;27.00;10.98;;;17.60;99.90;;;;;;4919400;29;20055;-83
2022/08/18 01:57:43;;;;;;;17.58;10.15;;;17.60;99.90;;;;;;4964206;28;20047;-84
2022/08/18 02:00:14;;;;;;;18.08;10.40;;;17.60;99.90;;;;;;4938575;29;20058;-83
2022/08/18 02:02:40;;;;;;;42.90;19.38;;;17.60;99.90;;;;;;4938844;29;20045;-84
2022/08/18 02:05:15;;;;;;;32.70;14.27;;;17.50;99.90;;;;;;4938829;29;20118;-84
2022/08/18 02:07:41;;;;;;;46.75;19.30;;;17.50;99.90;;;;;;4937470;29;20114;-84
2022/08/18 02:10:09;;;;;;;21.90;12.50;;;17.40;99.90;;;;;;4938673;29;20043;-84
2022/08/18 02:12:36;;;;;;;23.20;13.77;;;17.30;99.90;;;;;;4942856;29;20058;-83
2022/08/18 02:15:02;;;;;;;28.33;16.33;;;17.30;99.90;;;;;;4953270;29;20043;-83
2022/08/18 02:17:27;;;;;;;25.08;13.65;;;17.40;99.90;;;;;;4934695;29;20057;-83
2022/08/18 02:19:54;;;;;;;24.00;15.80;;;17.40;99.90;;;;;;4938766;29;20557;-83
2022/08/18 02:22:20;;;;;;;29.30;15.43;;;17.50;99.90;;;;;;4939336;29;20051;-84
2022/08/18 02:24:46;;;;;;;25.08;15.35;;;17.50;99.90;;;;;;4939150;29;20039;-84
2022/08/18 02:27:13;;;;;;;39.33;20.50;;;17.60;99.90;;;;;;4938644;29;20023;-85
2022/08/18 02:29:39;;;;;;;29.88;18.33;;;17.70;99.90;;;;;;4940392;29;20092;-84
2022/08/18 02:32:05;;;;;;;27.35;15.88;;;17.70;99.90;;;;;;4925400;29;20058;-84
2022/08/18 02:34:31;;;;;;;24.33;14.82;;;17.70;99.90;;;;;;4941546;29;20043;-84
2022/08/18 02:36:59;;;;;;;27.67;16.95;;;17.70;99.90;;;;;;4940896;29;20106;-84
2022/08/18 02:39:25;;;;;;;21.52;13.25;;;17.80;99.90;;;;;;4957162;28;20050;-84
2022/08/18 02:41:50;;;;;;;29.50;16.13;;;17.80;99.90;;;;;;4929369;29;20070;-84
2022/08/18 02:44:16;;;;;;;26.30;16.08;;;17.90;99.90;;;;;;4942229;29;20178;-84
2022/08/18 02:46:42;;;;;;;20.58;13.93;;;17.90;99.90;;;;;;4925267;29;20507;-84
2022/08/18 02:49:08;;;;;;;22.88;14.63;;;17.90;99.90;;;;;;4967723;28;20275;-83
2022/08/18 02:51:34;;;;;;;20.77;12.25;;;17.90;99.90;;;;;;4938200;29;20046;-83
2022/08/18 02:54:00;;;;;;;22.48;14.65;;;17.90;99.90;;;;;;4937806;29;20576;-84
2022/08/18 02:56:29;;;;;;;21.75;12.70;;;17.90;99.90;;;;;;4935993;29;20180;-84
2022/08/18 02:59:00;;;;;;;22.02;12.23;;;18.00;99.90;;;;;;4937710;29;20510;-84
2022/08/18 03:01:32;;;;;;;20.85;12.18;;;18.00;99.90;;;;;;4935941;29;20075;-84
2022/08/18 03:03:59;;;;;;;17.60;11.20;;;18.00;99.90;;;;;;4953122;29;20482;-84
2022/08/18 03:06:27;;;;;;;23.60;13.38;;;18.00;99.90;;;;;;4920627;28;20035;-84
2022/08/18 03:08:54;;;;;;;23.85;13.55;;;18.10;99.90;;;;;;4937130;29;20039;-84
2022/08/18 03:11:22;;;;;;;21.23;11.73;;;18.10;99.90;;;;;;4937782;29;20039;-84
2022/08/18 03:13:48;;;;;;;25.92;15.07;;;18.10;99.90;;;;;;4937196;29;20039;-84
2022/08/18 03:16:17;;;;;;;20.08;11.35;;;18.10;99.90;;;;;;4937798;29;20089;-84
2022/08/18 03:18:45;;;;;;;20.17;11.02;;;18.20;99.90;;;;;;4936730;29;20398;-83
2022/08/18 03:21:15;;;;;;;20.40;12.90;;;18.20;99.90;;;;;;4937339;29;20073;-83
2022/08/18 03:23:41;;;;;;;16.92;13.27;;;18.20;99.90;;;;;;4937704;29;20054;-83
2022/08/18 03:26:10;;;;;;;23.85;14.05;;;18.20;99.90;;;;;;4937235;29;20129;-83
2022/08/18 03:28:37;;;;;;;21.63;12.48;;;18.20;99.90;;;;;;4935666;29;20043;-84
2022/08/18 03:31:03;;;;;;;23.92;13.43;;;18.10;99.90;;;;;;4921292;29;20087;-83
2022/08/18 03:33:29;;;;;;;23.20;11.98;;;18.20;99.90;;;;;;4931056;29;20387;-83
2022/08/18 03:35:54;;;;;;;23.48;13.45;;;18.10;99.90;;;;;;4929432;29;20042;-83
2022/08/18 03:38:20;;;;;;;19.63;13.02;;;18.10;99.90;;;;;;4958033;29;20067;-83
2022/08/18 03:40:51;;;;;;;22.65;12.43;;;18.20;99.90;;;;;;4957007;29;20588;-83
2022/08/18 03:43:18;;;;;;;18.48;11.52;;;18.10;99.90;;;;;;4949741;29;20117;-83
2022/08/18 03:45:45;;;;;;;16.35;12.32;;;18.20;99.90;;;;;;4934327;29;20050;-82
2022/08/18 03:48:10;;;;;;;25.95;11.90;;;18.20;99.90;;;;;;4945867;29;20040;-83
2022/08/18 03:50:36;;;;;;;24.00;11.85;;;18.20;99.90;;;;;;4935418;29;20082;-82
2022/08/18 03:53:03;;;;;;;22.42;12.85;;;18.20;99.90;;;;;;4952629;29;20043;-82
2022/08/18 03:55:30;;;;;;;20.88;13.02;;;18.30;99.90;;;;;;4950386;29;20525;-83
2022/08/18 03:58:01;;;;;;;21.23;13.70;;;18.20;99.90;;;;;;4949644;29;20121;-82
2022/08/18 04:00:29;;;;;;;13.90;10.93;;;18.20;99.90;;;;;;4951645;29;20043;-83
2022/08/18 04:02:56;;;;;;;19.02;12.27;;;18.20;99.90;;;;;;4951072;29;20189;-83
2022/08/18 04:05:21;;;;;;;24.15;12.63;;;18.20;99.90;;;;;;4952407;29;20059;-83
2022/08/18 04:07:47;;;;;;;21.45;11.60;;;18.30;99.90;;;;;;4949562;29;20027;-82
2022/08/18 04:10:13;;;;;;;17.27;11.02;;;18.30;99.90;;;;;;4953273;29;20039;-83
2022/08/18 04:12:41;;;;;;;18.08;10.75;;;18.20;99.90;;;;;;4952368;29;20043;-83
2022/08/18 04:15:07;;;;;;;20.40;11.30;;;18.30;99.90;;;;;;4937850;29;20075;-83
2022/08/18 04:17:32;;;;;;;20.58;10.88;;;18.30;99.90;;;;;;4952562;29;20078;-82
2022/08/18 04:19:58;;;;;;;20.13;13.10;;;18.30;99.90;;;;;;4952742;29;20067;-82
2022/08/18 04:22:24;;;;;;;20.65;13.55;;;18.30;99.90;;;;;;4953579;29;20305;-82
2022/08/18 04:24:50;;;;;;;18.17;12.23;;;18.30;99.90;;;;;;4952805;29;20046;-83
2022/08/18 04:27:16;;;;;;;23.48;14.27;;;18.30;99.90;;;;;;4952266;29;20042;-83
2022/08/18 04:29:42;;;;;;;30.30;15.27;;;18.30;99.90;;;;;;4935132;29;20043;-82
2022/08/18 04:32:07;;;;;;;21.40;15.13;;;18.20;99.90;;;;;;4941264;29;20051;-84
2022/08/18 04:34:33;;;;;;;19.33;11.45;;;18.20;99.90;;;;;;4935866;29;20039;-84
2022/08/18 04:37:00;;;;;;;31.38;15.93;;;18.20;99.90;;;;;;4935364;29;20043;-84
2022/08/18 04:39:25;;;;;;;29.70;15.52;;;18.20;99.90;;;;;;4935664;29;20035;-83
2022/08/18 04:41:51;;;;;;;23.25;13.57;;;18.20;99.90;;;;;;4936265;29;20470;-84
2022/08/18 04:44:17;;;;;;;26.95;15.35;;;18.20;99.90;;;;;;4935499;29;20046;-84
2022/08/18 04:46:46;;;;;;;27.40;15.00;;;18.20;99.90;;;;;;4936284;29;20039;-83
2022/08/18 04:49:13;;;;;;;18.90;13.65;;;18.20;99.90;;;;;;4934958;29;20430;-84
2022/08/18 04:53:43;;;;;;;22.02;12.05;;;18.30;99.90;;;;;;4936102;29;20482;-83
2022/08/18 04:54:37;;;;;;;16.20;12.35;;;18.30;99.90;;;;;;4935116;29;20079;-84
2022/08/18 04:57:12;;;;;;;18.73;13.57;;;18.30;99.90;;;;;;4911560;28;20040;-84
2022/08/18 04:59:39;;;;;;;19.15;12.77;;;18.30;99.90;;;;;;4935129;29;20035;-84
2022/08/18 05:02:07;;;;;;;21.08;15.27;;;18.30;99.90;;;;;;4935639;29;20130;-84
2022/08/18 05:04:33;;;;;;;19.00;12.88;;;18.30;99.90;;;;;;4935808;29;20067;-85
2022/08/18 05:06:59;;;;;;;23.30;13.68;;;18.30;99.90;;;;;;4945928;29;20130;-83
2022/08/18 05:09:25;;;;;;;22.80;14.25;;;18.30;99.90;;;;;;4932863;29;20043;-83
2022/08/18 05:11:51;;;;;;;24.27;15.23;;;18.30;99.90;;;;;;4934501;28;20058;-83
2022/08/18 05:14:17;;;;;;;23.30;15.65;;;18.30;99.90;;;;;;4921702;29;20047;-83
2022/08/18 05:16:44;;;;;;;24.38;15.43;;;18.40;99.90;;;;;;4953782;29;20474;-83
2022/08/18 05:19:10;;;;;;;25.02;16.23;;;18.30;99.90;;;;;;4935461;29;20046;-82
2022/08/18 05:21:40;;;;;;;24.63;14.93;;;18.40;99.90;;;;;;4951777;29;20043;-83
2022/08/18 05:24:07;;;;;;;33.97;17.33;;;18.40;99.90;;;;;;4935861;29;20062;-83
2022/08/18 05:26:34;;;;;;;26.08;13.43;;;18.40;99.90;;;;;;4951713;28;20040;-82
2022/08/18 05:28:59;;;;;;;22.10;13.98;;;18.40;99.90;;;;;;4949216;29;20118;-82
2022/08/18 05:31:27;;;;;;;23.52;15.23;;;18.40;99.90;;;;;;4941785;29;20082;-83
2022/08/18 05:33:54;;;;;;;20.50;13.50;;;18.40;99.90;;;;;;4940558;29;20043;-83
2022/08/18 05:36:47;;;;;;;25.02;14.48;;;18.40;99.90;;;;;;4935419;29;20051;-83
2022/08/18 05:40:07;;;;;;;20.70;13.30;;;18.40;99.90;;;;;;4947791;29;20093;-83
2022/08/18 05:42:38;;;;;;;19.80;13.02;;;18.40;99.90;;;;;;4896650;29;20059;-83
2022/08/18 05:45:14;;;;;;;20.80;13.32;;;18.40;99.90;;;;;;4928425;29;20047;-83
2022/08/18 05:47:39;;;;;;;24.20;12.30;;;18.50;99.90;;;;;;4919503;29;20044;-84
2022/08/18 05:50:16;;;;;;;19.73;11.82;;;18.50;99.90;;;;;;4953167;29;20118;-84
2022/08/18 05:52:53;;;;;;;22.83;10.77;;;18.50;99.90;;;;;;4937745;29;20039;-83
2022/08/18 05:58:37;;;;;;;14.77;10.88;;;18.60;99.90;;;;;;4926013;29;20130;-84
2022/08/18 06:01:07;;;;;;;25.58;12.10;;;18.60;99.90;;;;;;4909059;29;20052;-84
2022/08/18 06:04:00;;;;;;;16.13;9.65;;;18.70;99.90;;;;;;4925624;29;20039;-84
2022/08/18 06:06:30;;;;;;;15.95;9.52;;;18.80;99.90;;;;;;4934857;29;20122;-84
2022/08/18 06:09:21;;;;;;;19.80;10.38;;;18.90;99.90;;;;;;4937191;29;20086;-84
2022/08/18 06:11:47;;;;;;;14.48;9.40;;;18.90;99.90;;;;;;4937313;29;20058;-84
2022/08/18 06:14:12;;;;;;;13.13;9.85;;;18.90;99.90;;;;;;4916687;29;20129;-84
2022/08/18 06:16:41;;;;;;;12.55;8.48;;;19.00;99.90;;;;;;4933513;29;20473;-84
2022/08/18 06:19:21;;;;;;;17.77;8.95;;;19.10;99.90;;;;;;4933136;29;20131;-84
2022/08/18 06:22:09;;;;;;;12.93;7.82;;;19.20;99.90;;;;;;4934128;29;20047;-84
2022/08/18 06:24:49;;;;;;;11.63;8.35;;;19.10;99.90;;;;;;4938557;29;20071;-84
2022/08/18 06:27:46;;;;;;;17.48;9.52;;;19.30;99.90;;;;;;4938821;29;20124;-84
2022/08/18 06:30:38;;;;;;;10.07;7.47;;;19.30;99.90;;;;;;4939186;29;20039;-84
2022/08/18 06:33:41;;;;;;;11.55;8.25;;;19.40;99.90;;;;;;4926248;29;20109;-84
2022/08/18 06:36:36;;;;;;;12.85;7.88;;;19.40;99.90;;;;;;4938843;29;20043;-85
2022/08/18 06:39:04;;;;;;;9.02;7.28;;;19.40;99.90;;;;;;4911354;29;20039;-84
2022/08/18 06:41:37;;;;;;;10.10;7.65;;;19.50;99.90;;;;;;4903622;29;20406;-84
2022/08/18 06:44:11;;;;;;;10.13;7.65;;;19.50;99.90;;;;;;4928989;29;20051;-82
2022/08/18 06:46:43;;;;;;;9.02;7.72;;;19.60;99.90;;;;;;4936136;29;20047;-82
2022/08/18 06:49:13;;;;;;;11.85;6.97;;;19.60;99.90;;;;;;4936092;29;20044;-83
2022/08/18 06:51:38;;;;;;;12.05;7.25;;;19.60;99.90;;;;;;4940152;28;20043;-84
2022/08/18 06:54:07;;;;;;;11.48;7.97;;;19.60;99.90;;;;;;4950707;29;20063;-84
2022/08/18 06:56:36;;;;;;;17.27;8.38;;;19.60;99.90;;;;;;4947444;29;21043;-84
2022/08/18 06:59:28;;;;;;;12.15;7.88;;;19.60;99.90;;;;;;4928941;29;20046;-82
2022/08/18 07:02:34;;;;;;;12.07;6.90;;;19.70;99.90;;;;;;4947846;29;20062;-81
2022/08/18 07:05:06;;;;;;;9.07;7.53;;;19.80;99.90;;;;;;4942161;29;20054;-80
2022/08/18 07:07:40;;;;;;;10.82;7.63;;;19.90;99.90;;;;;;4939827;29;20291;-80
2022/08/18 07:10:34;;;;;;;13.48;7.55;;;19.90;99.90;;;;;;4924920;29;20042;-81
2022/08/18 07:13:21;;;;;;;8.45;6.30;;;19.90;99.90;;;;;;4935903;29;20035;-82
2022/08/18 07:15:48;;;;;;;9.68;6.47;;;19.90;99.90;;;;;;4951691;29;20051;-83
2022/08/18 07:18:25;;;;;;;11.85;6.93;;;19.90;99.90;;;;;;4943006;29;20151;-80
2022/08/18 07:20:55;;;;;;;7.88;6.20;;;20.00;99.90;;;;;;4945961;29;20054;-80
2022/08/18 07:23:40;;;;;;;12.73;7.63;;;20.00;99.90;;;;;;4948587;29;20135;-82
2022/08/18 07:26:12;;;;;;;9.85;6.03;;;20.00;99.90;;;;;;4946587;29;20057;-81
2022/08/18 07:28:43;;;;;;;7.80;5.88;;;20.00;99.90;;;;;;4944602;29;20046;-83
2022/08/18 07:31:27;;;;;;;8.23;5.88;;;20.00;99.90;;;;;;4937017;29;20077;-83
2022/08/18 07:33:59;;;;;;;10.48;5.05;;;20.10;99.90;;;;;;4940220;29;20058;-83
2022/08/18 07:36:29;;;;;;;12.60;6.78;;;20.10;99.90;;;;;;4940126;29;20039;-83
2022/08/18 07:39:04;;;;;;;8.63;5.15;;;20.10;99.90;;;;;;4941105;29;20498;-84
2022/08/18 07:41:39;;;;;;;9.82;6.15;;;20.20;99.90;;;;;;4936077;29;20055;-84
2022/08/18 07:44:32;;;;;;;11.90;6.43;;;20.20;99.90;;;;;;4922822;29;20048;-84
2022/08/18 07:47:05;;;;;;;9.50;6.10;;;20.30;99.90;;;;;;4922863;29;20495;-84
2022/08/18 07:49:34;;;;;;;9.38;5.20;;;20.40;99.90;;;;;;4907888;29;20051;-83
2022/08/18 07:52:26;;;;;;;11.48;5.95;;;20.60;99.90;;;;;;4922285;29;20051;-84
2022/08/18 07:55:31;;;;;;;11.27;6.80;;;20.70;99.90;;;;;;4927090;29;20043;-81
2022/08/18 07:58:22;;;;;;;10.05;5.95;;;20.70;99.90;;;;;;4919512;29;20051;-82
2022/08/18 08:01:24;;;;;;;10.02;5.72;;;20.70;99.90;;;;;;4918631;29;20091;-82
2022/08/18 08:04:14;;;;;;;8.90;5.15;;;20.80;99.90;;;;;;4934439;29;20040;-82
2022/08/18 08:06:51;;;;;;;9.13;6.15;;;21.00;99.90;;;;;;4917545;29;20067;-82
2022/08/18 08:09:54;;;;;;;7.20;5.05;;;21.10;99.90;;;;;;4933895;29;20087;-82
2022/08/18 08:12:41;;;;;;;11.75;5.75;;;21.10;99.90;;;;;;4921591;29;20074;-86
2022/08/18 08:15:21;;;;;;;8.93;5.47;;;21.00;99.90;;;;;;4907652;28;20057;-82
2022/08/18 08:17:46;;;;;;;8.68;4.97;;;20.90;99.90;;;;;;4926387;29;20082;-82
2022/08/18 08:20:28;;;;;;;9.00;5.07;;;20.80;99.90;;;;;;4923288;29;20039;-82
2022/08/18 08:23:33;;;;;;;7.20;4.68;;;20.70;99.90;;;;;;4925084;29;20055;-82
2022/08/18 08:26:33;;;;;;;6.45;5.63;;;20.70;99.90;;;;;;4928645;29;20152;-81
2022/08/18 08:29:39;;;;;;;9.73;5.78;;;20.60;99.90;;;;;;4944210;29;20047;-81
2022/08/18 08:32:14;;;;;;;10.95;5.43;;;20.40;99.90;;;;;;4944000;29;20047;-82
2022/08/18 08:34:46;;;;;;;7.03;4.88;;;20.20;99.90;;;;;;4931415;29;20070;-81
2022/08/18 08:37:18;;;;;;;8.10;5.22;;;20.10;99.90;;;;;;4918964;29;20058;-80
2022/08/18 08:39:50;;;;;;;10.32;4.75;;;20.00;99.90;;;;;;4918160;29;20055;-80
2022/08/18 08:42:21;;;;;;;8.93;3.70;;;20.00;99.90;;;;;;4919616;29;20058;-81
2022/08/18 08:44:53;;;;;;;12.13;4.20;;;19.90;99.90;;;;;;4919204;29;20047;-80
2022/08/18 08:47:35;;;;;;;8.02;4.78;;;19.90;99.90;;;;;;4920181;29;20120;-82
2022/08/18 08:50:20;;;;;;;6.18;3.35;;;20.00;99.90;;;;;;4919511;29;20058;-82
2022/08/18 08:53:04;;;;;;;9.05;3.15;;;20.10;99.90;;;;;;4919479;29;20048;-81
2022/08/18 08:55:36;;;;;;;7.25;3.08;;;20.10;99.90;;;;;;4918057;29;20055;-84
2022/08/18 08:58:15;;;;;;;8.77;3.65;;;20.10;99.90;;;;;;4917046;29;20157;-83
2022/08/18 09:00:41;;;;;;;10.40;3.95;;;20.20;99.90;;;;;;4916401;29;20051;-82
2022/08/18 09:03:26;;;;;;;8.43;2.90;;;20.30;99.90;;;;;;4900943;29;20039;-84
2022/08/18 09:06:04;;;;;;;5.95;2.97;;;20.40;99.90;;;;;;4919711;29;20155;-83
2022/08/18 09:09:13;;;;;;;7.00;2.75;;;20.50;99.90;;;;;;4920454;29;20071;-84
2022/08/18 09:12:07;;;;;;;8.30;3.92;;;20.50;99.90;;;;;;4920432;29;20126;-84
2022/08/18 09:14:54;;;;;;;6.25;3.15;;;20.60;99.90;;;;;;4920853;29;20169;-83
2022/08/18 09:17:50;;;;;;;6.13;4.05;;;20.70;99.90;;;;;;4920886;29;20376;-84
2022/08/18 09:20:39;;;;;;;;;;;20.90;99.90;;;;;;4920444;29;20040;-82
2022/08/18 09:23:20;;;;;;;11.57;3.60;;;21.00;99.90;;;;;;4921039;29;20382;-83
2022/08/18 09:25:52;;;;;;;6.15;3.00;;;21.00;99.90;;;;;;4920750;29;20054;-83
2022/08/18 09:28:41;;;;;;;8.75;3.47;;;21.00;99.90;;;;;;4904668;29;20495;-82
2022/08/18 09:31:06;;;;;;;5.03;2.80;;;21.10;99.90;;;;;;4904802;29;20098;-81
2022/08/18 09:33:47;;;;;;;5.13;2.10;;;21.10;99.90;;;;;;4931605;29;20530;-83
2022/08/18 09:36:35;;;;;;;4.20;2.00;;;21.20;99.90;;;;;;4943401;29;20414;-83
2022/08/18 09:42:13;;;;;;;5.55;1.55;;;21.40;99.90;;;;;;4944792;29;20055;-81
2022/08/18 09:44:45;;;;;;;4.80;1.60;;;21.40;99.90;;;;;;4930173;29;20039;-82
2022/08/18 09:47:32;;;;;;;4.30;1.90;;;21.40;99.90;;;;;;4945097;28;20126;-82
2022/08/18 09:50:04;;;;;;;3.80;1.63;;;21.50;99.90;;;;;;4914876;29;20058;-82
2022/08/18 09:52:48;;;;;;;4.38;2.08;;;21.50;99.90;;;;;;4937005;29;20040;-83
2022/08/18 09:55:16;;;;;;;3.20;1.40;;;21.50;99.90;;;;;;4937289;29;20075;-82
2022/08/18 09:57:43;;;;;;;3.63;1.50;;;21.60;99.90;;;;;;4936284;29;20252;-83
2022/08/18 10:00:12;;;;;;;7.10;2.58;;;21.60;99.90;;;;;;4932220;29;20067;-82
2022/08/18 10:02:39;;;;;;;2.47;0.93;;;21.60;99.90;;;;;;4909986;29;20043;-84
2022/08/18 10:05:19;;;;;;;2.97;1.05;;;21.80;99.90;;;;;;4923506;29;20119;-83
2022/08/18 10:07:57;;;;;;;1.67;0.88;;;21.90;99.90;;;;;;4922213;29;20039;-83
2022/08/18 10:10:44;;;;;;;2.53;1.35;;;21.90;99.90;;;;;;4921331;29;20063;-83
2022/08/18 10:13:44;;;;;;;3.30;0.80;;;21.90;99.90;;;;;;4921056;29;20048;-83
2022/08/18 10:16:18;;;;;;;3.60;0.98;;;21.90;99.90;;;;;;4920327;29;20058;-83
2022/08/18 10:19:00;;;;;;;5.75;0.88;;;22.10;99.90;;;;;;4905032;29;20091;-82
2022/08/18 10:21:29;;;;;;;4.43;0.70;;;22.10;99.90;;;;;;4921169;29;20122;-82
2022/08/18 10:24:04;;;;;;;1.52;0.98;;;22.00;99.90;;;;;;4920918;29;20079;-83
2022/08/18 10:26:29;;;;;;;5.25;1.52;;;21.90;99.90;;;;;;4921112;29;20036;-82
2022/08/18 10:29:10;;;;;;;4.07;1.15;;;21.70;99.90;;;;;;4904062;29;20059;-83
2022/08/18 10:31:48;;;;;;;4.85;3.08;;;21.50;99.90;;;;;;4919820;29;20036;-84
2022/08/18 10:34:45;;;;;;;7.15;3.55;;;21.40;99.90;;;;;;4920030;29;20459;-84
2022/08/18 10:37:21;;;;;;;8.55;4.03;;;21.20;99.90;;;;;;4919750;29;20218;-83
2022/08/18 10:39:51;;;;;;;5.25;3.80;;;21.20;99.90;;;;;;4911379;29;20498;-84
2022/08/18 10:42:26;;;;;;;7.22;4.78;;;21.10;99.90;;;;;;4938538;29;20050;-84
2022/08/18 10:45:01;;;;;;;9.55;5.18;;;21.20;99.90;;;;;;4938470;29;20043;-84
2022/08/18 10:47:29;;;;;;;;;;;21.30;99.90;;;;;;4922714;29;20478;-84
2022/08/18 10:49:55;;;;;;;5.38;3.65;;;21.40;99.90;;;;;;4922227;29;20014;-84
2022/08/18 10:52:39;;;;;;;5.10;3.67;;;21.50;99.90;;;;;;4938137;29;20078;-85
2022/08/18 10:55:26;;;;;;;7.47;3.60;;;21.80;99.90;;;;;;4920504;29;20509;-85
2022/08/18 10:58:32;;;;;;;6.85;3.42;;;21.90;99.90;;;;;;4921637;29;20290;-85
2022/08/18 11:01:02;;;;;;;4.50;2.97;;;22.20;99.90;;;;;;4921865;29;20051;-85
2022/08/18 11:04:04;;;;;;;6.88;2.60;;;22.30;99.90;;;;;;4938094;29;20074;-85
2022/08/18 11:06:40;;;;;;;2.50;1.58;;;22.30;99.90;;;;;;4938438;29;20050;-85
2022/08/18 11:09:07;;;;;;;4.40;1.98;;;22.10;99.90;;;;;;4950405;29;20043;-81
2022/08/18 11:11:41;;;;;;;5.32;1.50;;;22.10;99.90;;;;;;4954286;29;20051;-83
2022/08/18 11:14:13;;;;;;;3.22;1.10;;;21.80;99.90;;;;;;4954764;29;20087;-82
2022/08/18 11:16:53;;;;;;;3.90;0.93;;;21.80;99.90;;;;;;4954909;29;20045;-84
2022/08/18 11:19:23;;;;;;;9.88;2.05;;;21.70;99.90;;;;;;4953179;29;20047;-81
2022/08/18 11:21:51;;;;;;;3.40;1.67;;;21.70;99.90;;;;;;4935245;29;20095;-82
2022/08/18 11:24:23;;;;;;;6.43;3.10;;;21.90;99.90;;;;;;4937747;29;20039;-83
2022/08/18 11:27:00;;;;;;;4.18;2.28;;;22.00;99.90;;;;;;4953498;29;20103;-82
2022/08/18 11:29:34;;;;;;;4.60;1.35;;;22.10;99.90;;;;;;4952925;29;20035;-83
2022/08/18 11:32:18;;;;;;;2.72;1.52;;;22.30;99.90;;;;;;4938639;29;20039;-83
2022/08/18 11:34:51;;;;;;;3.22;1.60;;;22.40;99.90;;;;;;4938791;29;20039;-81
2022/08/18 11:37:46;;;;;;;2.42;1.45;;;22.60;99.90;;;;;;4971390;29;20039;-83
2022/08/18 11:40:35;;;;;;;1.88;0.85;;;22.90;99.90;;;;;;4970853;29;20103;-84
2022/08/18 11:43:10;;;;;;;3.83;0.98;;;23.10;99.90;;;;;;4935209;29;20046;-83
2022/08/18 11:45:51;;;;;;;4.50;1.25;;;23.20;99.90;;;;;;4952220;29;20031;-84
2022/08/18 11:48:35;;;;;;;5.78;1.65;;;23.30;99.90;;;;;;4937454;29;20098;-83
2022/08/18 11:51:07;;;;;;;4.43;1.53;;;23.30;99.90;;;;;;4969423;29;20446;-84
2022/08/18 11:53:53;;;;;;;3.40;1.45;;;23.40;99.90;;;;;;4953553;28;20469;-82
2022/08/18 11:56:18;;;;;;;5.20;1.65;;;23.40;99.90;;;;;;4955771;28;20038;-83
2022/08/18 11:59:06;;;;;;;3.53;1.35;;;23.50;99.90;;;;;;4970442;28;20173;-82
2022/08/18 12:01:53;;;;;;;3.13;1.02;;;23.60;99.90;;;;;;4949264;28;20046;-85
2022/08/18 12:04:19;;;;;;;3.92;0.70;;;23.90;99.90;;;;;;4940461;28;20559;-85
2022/08/18 12:06:54;;;;;;;4.05;1.00;;;24.00;99.90;;;;;;4956505;28;20049;-85
2022/08/18 12:09:19;;;;;;;;;;;24.10;99.90;;;;;;4947788;29;20081;-85
2022/08/18 12:11:52;;;;;;;3.05;1.55;;;24.10;99.90;;;;;;4924612;29;20005;-85
2022/08/18 12:14:21;;;;;;;2.40;0.65;;;24.30;99.90;;;;;;4904997;29;20048;-83
2022/08/18 12:16:47;;;;;;;2.35;1.10;;;24.60;99.90;;;;;;4932167;29;20100;-84
2022/08/18 12:19:13;;;;;;;5.32;1.17;;;24.80;99.90;;;;;;4931358;29;20052;-84
2022/08/18 12:21:41;;;;;;;3.33;0.68;;;25.00;99.90;;;;;;4914700;29;20043;-85
2022/08/18 12:24:31;;;;;;;4.65;1.30;;;25.20;99.90;;;;;;4923622;29;20482;-84
2022/08/18 12:26:58;;;;;;;5.45;1.25;;;25.60;99.90;;;;;;4934113;29;20039;-84
2022/08/18 12:29:25;;;;;;;5.80;1.88;;;25.80;99.90;;;;;;4932746;29;20051;-83
2022/08/18 12:31:53;;;;;;;2.72;1.58;;;25.90;99.90;;;;;;4934613;29;20053;-82
2022/08/18 12:34:23;;;;;;;1.75;0.70;;;25.90;99.90;;;;;;4950684;29;20043;-83
2022/08/18 12:36:50;;;;;;;1.85;0.77;;;26.20;99.90;;;;;;4968269;29;20109;-82
2022/08/18 12:39:16;;;;;;;2.08;1.02;;;26.50;99.90;;;;;;4937924;29;20075;-84
2022/08/18 12:41:42;;;;;;;2.85;0.90;;;26.50;99.90;;;;;;4930262;29;20514;-83
2022/08/18 12:44:08;;;;;;;1.63;0.40;;;26.70;99.90;;;;;;4932515;29;20043;-82
2022/08/18 12:46:34;;;;;;;2.72;0.50;;;26.60;99.90;;;;;;4933133;29;20099;-82
2022/08/18 12:49:01;;;;;;;2.55;0.55;;;26.10;99.90;;;;;;4932768;29;20047;-83
2022/08/18 12:51:27;;;;;;;3.70;1.20;;;25.80;99.90;;;;;;4932076;29;20044;-83
2022/08/18 12:53:52;;;;;;;2.42;0.80;;;25.80;99.90;;;;;;4932792;29;20402;-83
2022/08/18 12:56:29;;;;;;;4.03;0.80;;;26.20;99.90;;;;;;4931392;29;20051;-83
2022/08/18 12:58:55;;;;;;;4.55;0.88;;;26.50;99.90;;;;;;4931198;29;20111;-84
2022/08/18 13:01:23;;;;;;;3.00;0.50;;;26.50;99.90;;;;;;4931637;29;20062;-83
2022/08/18 13:03:52;;;;;;;3.20;0.70;;;26.80;99.90;;;;;;4930556;29;20046;-83
2022/08/18 13:06:18;;;;;;;2.67;1.23;;;27.00;99.90;;;;;;4916714;29;20031;-81
2022/08/18 13:08:44;;;;;;;2.03;0.60;;;27.10;99.90;;;;;;4939849;29;20047;-84
2022/08/18 13:11:09;;;;;;;2.35;0.50;;;27.40;99.90;;;;;;4935998;29;20058;-84
2022/08/18 13:13:37;;;;;;;2.58;0.60;;;27.70;99.90;;;;;;4936186;29;20031;-85
2022/08/18 13:16:05;;;;;;;3.08;0.60;;;27.80;99.90;;;;;;4935819;29;20151;-84
2022/08/18 13:18:30;;;;;;;1.40;0.50;;;28.00;99.90;;;;;;4936327;29;20627;-83
2022/08/18 13:20:57;;;;;;;2.08;0.85;;;28.00;99.90;;;;;;4936174;29;20047;-84
2022/08/18 13:23:22;;;;;;;1.42;0.45;;;27.70;99.90;;;;;;4912488;29;20050;-86
2022/08/18 13:25:48;;;;;;;1.17;0.50;;;27.80;99.90;;;;;;4917314;29;20051;-86